sensor_id;sensor_type;location;lat;lon;timestamp;pressure;altitude;pressure_sealevel;temperature;humidity
19526;BME280;9907;42.676;26.348;2023-04-19T00:01:14;98407.63;;;10.70;100.00
19526;BME280;9907;42.676;26.348;2023-04-19T00:03:40;98410.28;;;10.70;100.00
19526;BME280;9907;42.676;26.348;2023-04-19T00:06:05;98406.31;;;10.74;100.00
19526;BME280;9907;42.676;26.348;2023-04-19T00:08:33;98406.31;;;10.74;100.00
19526;BME280;9907;42.676;26.348;2023-04-19T00:10:58;98404.94;;;10.70;100.00
19526;BME280;9907;42.676;26.348;2023-04-19T00:13:24;98401.75;;;10.67;100.00
19526;BME280;9907;42.676;26.348;2023-04-19T00:15:49;98393.97;;;10.73;100.00
19526;BME280;9907;42.676;26.348;2023-04-19T00:18:14;98393.13;;;10.73;100.00
19526;BME280;9907;42.676;26.348;2023-04-19T00:20:40;98392.19;;;10.64;100.00
19526;BME280;9907;42.676;26.348;2023-04-19T00:23:05;98382.84;;;10.60;100.00
19526;BME280;9907;42.676;26.348;2023-04-19T00:25:31;98392.28;;;10.55;100.00
19526;BME280;9907;42.676;26.348;2023-04-19T00:27:58;98384.06;;;10.48;100.00
19526;BME280;9907;42.676;26.348;2023-04-19T00:30:24;98379.38;;;10.50;100.00
19526;BME280;9907;42.676;26.348;2023-04-19T00:32:50;98378.41;;;10.51;100.00
19526;BME280;9907;42.676;26.348;2023-04-19T00:35:15;98388.09;;;10.52;100.00
19526;BME280;9907;42.676;26.348;2023-04-19T00:37:41;98381.75;;;10.53;100.00
19526;BME280;9907;42.676;26.348;2023-04-19T00:40:07;98381.75;;;10.53;100.00
19526;BME280;9907;42.676;26.348;2023-04-19T00:42:33;98377.03;;;10.47;100.00
19526;BME280;9907;42.676;26.348;2023-04-19T00:44:58;98372.53;;;10.48;100.00
19526;BME280;9907;42.676;26.348;2023-04-19T00:47:23;98377.88;;;10.48;100.00
19526;BME280;9907;42.676;26.348;2023-04-19T00:49:49;98382.38;;;10.47;100.00
19526;BME280;9907;42.676;26.348;2023-04-19T00:52:14;98378.50;;;10.42;100.00
19526;BME280;9907;42.676;26.348;2023-04-19T00:54:42;98384.63;;;10.42;100.00
19526;BME280;9907;42.676;26.348;2023-04-19T00:57:07;98386.19;;;10.45;100.00
19526;BME280;9907;42.676;26.348;2023-04-19T00:59:33;98380.41;;;10.49;100.00
19526;BME280;9907;42.676;26.348;2023-04-19T01:01:59;98376.88;;;10.49;100.00
19526;BME280;9907;42.676;26.348;2023-04-19T01:04:24;98378.41;;;10.51;100.00
19526;BME280;9907;42.676;26.348;2023-04-19T01:06:50;98379.38;;;10.50;100.00
19526;BME280;9907;42.676;26.348;2023-04-19T01:09:15;98368.69;;;10.50;100.00
19526;BME280;9907;42.676;26.348;2023-04-19T01:11:41;98367.72;;;10.51;100.00
19526;BME280;9907;42.676;26.348;2023-04-19T01:14:06;98363.91;;;10.54;100.00
19526;BME280;9907;42.676;26.348;2023-04-19T01:16:32;98363.44;;;10.58;100.00
19526;BME280;9907;42.676;26.348;2023-04-19T01:18:57;98361.75;;;10.57;100.00
19526;BME280;9907;42.676;26.348;2023-04-19T01:21:23;98362.06;;;10.54;100.00
19526;BME280;9907;42.676;26.348;2023-04-19T01:23:48;98367.84;;;10.50;100.00
19526;BME280;9907;42.676;26.348;2023-04-19T01:26:15;98367.72;;;10.51;100.00
19526;BME280;9907;42.676;26.348;2023-04-19T01:28:40;98368.03;;;10.48;100.00
19526;BME280;9907;42.676;26.348;2023-04-19T01:31:06;98357.34;;;10.48;100.00
19526;BME280;9907;42.676;26.348;2023-04-19T01:33:31;98359.03;;;10.49;100.00
19526;BME280;9907;42.676;26.348;2023-04-19T01:35:56;98362.47;;;10.42;100.00
19526;BME280;9907;42.676;26.348;2023-04-19T01:38:22;98362.47;;;10.42;100.00
19526;BME280;9907;42.676;26.348;2023-04-19T01:40:47;98363.59;;;10.39;100.00
19526;BME280;9907;42.676;26.348;2023-04-19T01:43:15;98357.41;;;10.39;100.00
19526;BME280;9907;42.676;26.348;2023-04-19T01:45:40;98359.28;;;10.38;100.00
19526;BME280;9907;42.676;26.348;2023-04-19T01:48:06;98359.63;;;10.43;100.00
19526;BME280;9907;42.676;26.348;2023-04-19T01:50:31;98356.28;;;10.41;100.00
19526;BME280;9907;42.676;26.348;2023-04-19T01:52:57;98355.91;;;10.36;100.00
19526;BME280;9907;42.676;26.348;2023-04-19T01:55:23;98352.78;;;10.41;100.00
19526;BME280;9907;42.676;26.348;2023-04-19T01:57:49;98363.81;;;10.46;100.00
19526;BME280;9907;42.676;26.348;2023-04-19T02:00:17;98358.78;;;10.43;100.00
19526;BME280;9907;42.676;26.348;2023-04-19T02:02:43;98354.28;;;10.43;100.00
19526;BME280;9907;42.676;26.348;2023-04-19T02:05:08;98344.97;;;10.47;100.00
19526;BME280;9907;42.676;26.348;2023-04-19T02:07:34;98350.84;;;10.51;100.00
19526;BME280;9907;42.676;26.348;2023-04-19T02:10:00;98344.66;;;10.50;100.00
19526;BME280;9907;42.676;26.348;2023-04-19T02:12:26;98349.69;;;10.53;100.00
19526;BME280;9907;42.676;26.348;2023-04-19T02:14:59;98337.38;;;10.52;100.00
19526;BME280;9907;42.676;26.348;2023-04-19T02:17:26;98342.53;;;10.54;100.00
19526;BME280;9907;42.676;26.348;2023-04-19T02:19:52;98345.19;;;10.54;100.00
19526;BME280;9907;42.676;26.348;2023-04-19T02:22:18;98339.72;;;10.55;100.00
19526;BME280;9907;42.676;26.348;2023-04-19T02:24:44;98342.53;;;10.54;100.00
19526;BME280;9907;42.676;26.348;2023-04-19T02:27:10;98342.69;;;10.52;100.00
19526;BME280;9907;42.676;26.348;2023-04-19T02:29:36;98348.72;;;10.54;100.00
19526;BME280;9907;42.676;26.348;2023-04-19T02:32:02;98346.03;;;10.54;100.00
19526;BME280;9907;42.676;26.348;2023-04-19T02:34:33;98348.88;;;10.53;100.00
19526;BME280;9907;42.676;26.348;2023-04-19T02:37:00;98338.81;;;10.47;100.00
19526;BME280;9907;42.676;26.348;2023-04-19T02:39:26;98341.34;;;10.48;100.00
19526;BME280;9907;42.676;26.348;2023-04-19T02:41:51;98340.19;;;10.51;100.00
19526;BME280;9907;42.676;26.348;2023-04-19T02:44:17;98335.81;;;10.50;100.00
19526;BME280;9907;42.676;26.348;2023-04-19T02:46:50;98333.84;;;10.52;100.00
19526;BME280;9907;42.676;26.348;2023-04-19T02:49:16;98335.69;;;10.51;100.00
19526;BME280;9907;42.676;26.348;2023-04-19T02:51:42;98333.84;;;10.52;100.00
19526;BME280;9907;42.676;26.348;2023-04-19T02:54:07;98341.03;;;10.51;100.00
19526;BME280;9907;42.676;26.348;2023-04-19T02:56:33;98333.16;;;10.50;100.00
19526;BME280;9907;42.676;26.348;2023-04-19T02:59:02;98328.81;;;10.49;100.00
19526;BME280;9907;42.676;26.348;2023-04-19T03:01:28;98333.84;;;10.52;100.00
19526;BME280;9907;42.676;26.348;2023-04-19T03:03:53;98334.84;;;10.51;100.00
19526;BME280;9907;42.676;26.348;2023-04-19T03:06:19;98337.50;;;10.51;100.00
19526;BME280;9907;42.676;26.348;2023-04-19T03:08:44;98330.97;;;10.45;100.00
19526;BME280;9907;42.676;26.348;2023-04-19T03:11:10;98325.63;;;10.45;100.00
19526;BME280;9907;42.676;26.348;2023-04-19T03:13:36;98334.44;;;10.46;100.00
19526;BME280;9907;42.676;26.348;2023-04-19T03:16:01;98330.66;;;10.48;100.00
19526;BME280;9907;42.676;26.348;2023-04-19T03:18:27;98330.66;;;10.48;100.00
19526;BME280;9907;42.676;26.348;2023-04-19T03:20:52;98328.13;;;10.47;100.00
19526;BME280;9907;42.676;26.348;2023-04-19T03:23:18;98332.47;;;10.48;100.00
19526;BME280;9907;42.676;26.348;2023-04-19T03:25:43;98328.13;;;10.47;100.00
19526;BME280;9907;42.676;26.348;2023-04-19T03:28:09;98337.13;;;10.46;100.00
19526;BME280;9907;42.676;26.348;2023-04-19T03:30:34;98337.13;;;10.46;100.00
19526;BME280;9907;42.676;26.348;2023-04-19T03:32:59;98341.66;;;10.45;100.00
19526;BME280;9907;42.676;26.348;2023-04-19T03:35:25;98339.13;;;10.44;100.00
19526;BME280;9907;42.676;26.348;2023-04-19T03:37:51;98339.56;;;10.39;100.00
19526;BME280;9907;42.676;26.348;2023-04-19T03:40:16;98345.22;;;10.36;100.00
19526;BME280;9907;42.676;26.348;2023-04-19T03:42:42;98331.19;;;10.34;100.00
19526;BME280;9907;42.676;26.348;2023-04-19T03:45:08;98336.38;;;10.36;100.00
19526;BME280;9907;42.676;26.348;2023-04-19T03:47:33;98331.88;;;10.36;100.00
19526;BME280;9907;42.676;26.348;2023-04-19T03:49:59;98344.91;;;10.39;100.00
19526;BME280;9907;42.676;26.348;2023-04-19T03:52:24;98342.94;;;10.41;100.00
19526;BME280;9907;42.676;26.348;2023-04-19T03:54:50;98338.44;;;10.42;100.00
19526;BME280;9907;42.676;26.348;2023-04-19T03:57:16;98336.75;;;10.41;100.00
19526;BME280;9907;42.676;26.348;2023-04-19T03:59:41;98331.41;;;10.41;100.00
19526;BME280;9907;42.676;26.348;2023-04-19T04:02:07;98331.25;;;10.42;100.00
19526;BME280;9907;42.676;26.348;2023-04-19T04:04:33;98332.94;;;10.43;100.00
19526;BME280;9907;42.676;26.348;2023-04-19T04:06:58;98335.59;;;10.43;100.00
19526;BME280;9907;42.676;26.348;2023-04-19T04:09:23;98329.09;;;10.46;100.00
19526;BME280;9907;42.676;26.348;2023-04-19T04:11:49;98330.97;;;10.45;100.00
19526;BME280;9907;42.676;26.348;2023-04-19T04:14:15;98333.63;;;10.45;100.00
19526;BME280;9907;42.676;26.348;2023-04-19T04:16:40;98337.97;;;10.46;100.00
19526;BME280;9907;42.676;26.348;2023-04-19T04:19:05;98326.91;;;10.41;100.00
19526;BME280;9907;42.676;26.348;2023-04-19T04:21:31;98331.25;;;10.42;100.00
19526;BME280;9907;42.676;26.348;2023-04-19T04:23:57;98330.66;;;10.48;100.00
19526;BME280;9907;42.676;26.348;2023-04-19T04:26:26;98330.34;;;10.51;100.00
19526;BME280;9907;42.676;26.348;2023-04-19T04:28:55;98333.31;;;10.48;100.00
19526;BME280;9907;42.676;26.348;2023-04-19T04:31:21;98329.50;;;10.51;100.00
19526;BME280;9907;42.676;26.348;2023-04-19T04:33:46;98332.88;;;10.53;100.00
19526;BME280;9907;42.676;26.348;2023-04-19T04:36:12;98330.88;;;10.55;100.00
19526;BME280;9907;42.676;26.348;2023-04-19T04:38:37;98332.69;;;10.54;100.00
19526;BME280;9907;42.676;26.348;2023-04-19T04:41:03;98333.53;;;10.55;100.00
19526;BME280;9907;42.676;26.348;2023-04-19T04:43:30;98338.41;;;10.59;100.00
19526;BME280;9907;42.676;26.348;2023-04-19T04:45:56;98339.72;;;10.55;100.00
19526;BME280;9907;42.676;26.348;2023-04-19T04:48:22;98334.53;;;10.54;100.00
19526;BME280;9907;42.676;26.348;2023-04-19T04:50:48;98349.16;;;10.50;100.00
19526;BME280;9907;42.676;26.348;2023-04-19T04:53:13;98347.03;;;10.53;100.00
19526;BME280;9907;42.676;26.348;2023-04-19T04:55:39;98342.91;;;10.59;100.00
19526;BME280;9907;42.676;26.348;2023-04-19T04:58:04;98343.13;;;10.65;100.00
19526;BME280;9907;42.676;26.348;2023-04-19T05:00:30;98352.66;;;10.68;100.00
19526;BME280;9907;42.676;26.348;2023-04-19T05:02:56;98354.22;;;10.70;100.00
19526;BME280;9907;42.676;26.348;2023-04-19T05:05:22;98346.72;;;10.74;100.00
19526;BME280;9907;42.676;26.348;2023-04-19T05:07:47;98343.88;;;10.75;100.00
19526;BME280;9907;42.676;26.348;2023-04-19T05:10:13;98343.59;;;10.79;100.00
19526;BME280;9907;42.676;26.348;2023-04-19T05:12:38;98344.41;;;10.79;100.00
19526;BME280;9907;42.676;26.348;2023-04-19T05:15:04;98350.91;;;10.77;100.00
19526;BME280;9907;42.676;26.348;2023-04-19T05:17:30;98342.03;;;10.76;100.00
19526;BME280;9907;42.676;26.348;2023-04-19T05:19:56;98351.44;;;10.80;100.00
19526;BME280;9907;42.676;26.348;2023-04-19T05:22:21;98350.97;;;10.85;100.00
19526;BME280;9907;42.676;26.348;2023-04-19T05:24:46;98360.03;;;10.92;100.00
19526;BME280;9907;42.676;26.348;2023-04-19T05:27:14;98353.84;;;10.91;100.00
19526;BME280;9907;42.676;26.348;2023-04-19T05:29:39;98350.66;;;10.88;100.00
19526;BME280;9907;42.676;26.348;2023-04-19T05:32:05;98350.84;;;10.86;100.00
19526;BME280;9907;42.676;26.348;2023-04-19T05:34:32;98349.34;;;10.92;100.00
19526;BME280;9907;42.676;26.348;2023-04-19T05:36:58;98350.19;;;10.92;100.00
19526;BME280;9907;42.676;26.348;2023-04-19T05:39:23;98344.84;;;10.92;100.00
19526;BME280;9907;42.676;26.348;2023-04-19T05:41:49;98342.03;;;10.94;100.00
19526;BME280;9907;42.676;26.348;2023-04-19T05:44:14;98351.78;;;11.03;100.00
19526;BME280;9907;42.676;26.348;2023-04-19T05:46:42;98351.44;;;11.06;100.00
19526;BME280;9907;42.676;26.348;2023-04-19T05:49:08;98352.44;;;11.05;100.00
19526;BME280;9907;42.676;26.348;2023-04-19T05:51:33;98353.47;;;11.04;100.00
19526;BME280;9907;42.676;26.348;2023-04-19T05:53:59;98356.78;;;11.06;100.00
19526;BME280;9907;42.676;26.348;2023-04-19T05:56:25;98356.31;;;11.10;100.00
19526;BME280;9907;42.676;26.348;2023-04-19T05:58:51;98361.34;;;11.13;100.00
19526;BME280;9907;42.676;26.348;2023-04-19T06:01:16;98363.03;;;11.14;100.00
19526;BME280;9907;42.676;26.348;2023-04-19T06:03:42;98364.22;;;11.20;100.00
19526;BME280;9907;42.676;26.348;2023-04-19T06:06:07;98363.25;;;11.21;100.00
19526;BME280;9907;42.676;26.348;2023-04-19T06:08:33;98363.94;;;11.23;100.00
19526;BME280;9907;42.676;26.348;2023-04-19T06:10:59;98364.56;;;11.17;100.00
19526;BME280;9907;42.676;26.348;2023-04-19T06:13:24;98360.19;;;11.16;100.00
19526;BME280;9907;42.676;26.348;2023-04-19T06:15:50;98364.41;;;11.18;100.00
19526;BME280;9907;42.676;26.348;2023-04-19T06:18:15;98367.28;;;11.25;100.00
19526;BME280;9907;42.676;26.348;2023-04-19T06:20:41;98359.25;;;11.25;100.00
19526;BME280;9907;42.676;26.348;2023-04-19T06:23:06;98360.78;;;11.28;100.00
19526;BME280;9907;42.676;26.348;2023-04-19T06:25:32;98356.66;;;11.33;100.00
19526;BME280;9907;42.676;26.348;2023-04-19T06:27:57;98361.19;;;11.41;100.00
19526;BME280;9907;42.676;26.348;2023-04-19T06:30:23;98361.88;;;11.43;100.00
19526;BME280;9907;42.676;26.348;2023-04-19T06:32:48;98366.41;;;11.50;100.00
19526;BME280;9907;42.676;26.348;2023-04-19T06:35:14;98366.94;;;11.54;100.00
19526;BME280;9907;42.676;26.348;2023-04-19T06:37:40;98366.75;;;11.47;100.00
19526;BME280;9907;42.676;26.348;2023-04-19T06:40:06;98365.91;;;11.47;100.00
19526;BME280;9907;42.676;26.348;2023-04-19T06:42:36;98379.13;;;11.48;100.00
19526;BME280;9907;42.676;26.348;2023-04-19T06:45:01;98371.78;;;11.50;100.00
19526;BME280;9907;42.676;26.348;2023-04-19T06:47:28;98376.19;;;11.59;100.00
19526;BME280;9907;42.676;26.348;2023-04-19T06:49:53;98371.84;;;11.66;100.00
19526;BME280;9907;42.676;26.348;2023-04-19T06:52:19;98368.75;;;11.71;100.00
19526;BME280;9907;42.676;26.348;2023-04-19T06:54:48;98371.75;;;11.76;100.00
19526;BME280;9907;42.676;26.348;2023-04-19T06:57:17;98368.47;;;11.90;100.00
19526;BME280;9907;42.676;26.348;2023-04-19T06:59:43;98371.19;;;11.98;100.00
19526;BME280;9907;42.676;26.348;2023-04-19T07:02:09;98367.19;;;12.02;100.00
19526;BME280;9907;42.676;26.348;2023-04-19T07:04:35;98371.34;;;12.05;100.00
19526;BME280;9907;42.676;26.348;2023-04-19T07:07:01;98374.38;;;12.10;100.00
19526;BME280;9907;42.676;26.348;2023-04-19T07:09:27;98377.06;;;12.10;100.00
19526;BME280;9907;42.676;26.348;2023-04-19T07:11:52;98379.09;;;12.08;100.00
19526;BME280;9907;42.676;26.348;2023-04-19T07:14:18;98371.91;;;12.16;100.00
19526;BME280;9907;42.676;26.348;2023-04-19T07:16:44;98384.28;;;12.17;100.00
19526;BME280;9907;42.676;26.348;2023-04-19T07:19:11;98377.59;;;12.22;100.00
19526;BME280;9907;42.676;26.348;2023-04-19T07:21:36;98383.13;;;12.12;100.00
19526;BME280;9907;42.676;26.348;2023-04-19T07:24:04;98381.44;;;12.11;100.00
19526;BME280;9907;42.676;26.348;2023-04-19T07:26:30;98383.09;;;12.20;100.00
19526;BME280;9907;42.676;26.348;2023-04-19T07:28:55;98387.66;;;12.28;100.00
19526;BME280;9907;42.676;26.348;2023-04-19T07:31:22;98388.50;;;12.28;100.00
19526;BME280;9907;42.676;26.348;2023-04-19T07:33:49;98387.81;;;12.18;100.00
19526;BME280;9907;42.676;26.348;2023-04-19T07:36:15;98394.84;;;12.19;100.00
19526;BME280;9907;42.676;26.348;2023-04-19T07:38:40;98396.88;;;12.33;100.00
19526;BME280;9907;42.676;26.348;2023-04-19T07:41:05;98388.69;;;12.43;100.00
19526;BME280;9907;42.676;26.348;2023-04-19T07:43:31;98389.88;;;12.56;100.00
19526;BME280;9907;42.676;26.348;2023-04-19T07:45:56;98391.53;;;12.49;100.00
19526;BME280;9907;42.676;26.348;2023-04-19T07:48:22;98398.94;;;12.55;100.00
19526;BME280;9907;42.676;26.348;2023-04-19T07:50:47;98393.91;;;12.60;98.91
19526;BME280;9907;42.676;26.348;2023-04-19T07:53:13;98400.09;;;12.61;100.00
19526;BME280;9907;42.676;26.348;2023-04-19T07:55:38;98404.81;;;12.59;99.35
19526;BME280;9907;42.676;26.348;2023-04-19T07:58:04;98406.63;;;12.58;98.64
19526;BME280;9907;42.676;26.348;2023-04-19T08:00:29;98408.31;;;12.59;97.45
19526;BME280;9907;42.676;26.348;2023-04-19T08:02:55;98410.00;;;12.52;96.73
19526;BME280;9907;42.676;26.348;2023-04-19T08:05:21;98401.44;;;12.49;96.17
19526;BME280;9907;42.676;26.348;2023-04-19T08:07:47;98395.59;;;12.61;98.97
19526;BME280;9907;42.676;26.348;2023-04-19T08:10:14;98396.94;;;12.74;99.47
19526;BME280;9907;42.676;26.348;2023-04-19T08:12:39;98391.25;;;12.68;94.33
19526;BME280;9907;42.676;26.348;2023-04-19T08:15:07;98404.31;;;12.72;93.19
19526;BME280;9907;42.676;26.348;2023-04-19T08:17:33;98400.13;;;12.69;94.46
19526;BME280;9907;42.676;26.348;2023-04-19T08:19:59;98402.94;;;12.67;91.62
19526;BME280;9907;42.676;26.348;2023-04-19T08:22:24;98409.66;;;12.72;93.17
19526;BME280;9907;42.676;26.348;2023-04-19T08:24:51;98409.16;;;12.60;90.66
19526;BME280;9907;42.676;26.348;2023-04-19T08:27:17;98411.16;;;12.58;90.45
19526;BME280;9907;42.676;26.348;2023-04-19T08:29:43;98400.97;;;12.69;93.66
19526;BME280;9907;42.676;26.348;2023-04-19T08:32:10;98414.72;;;12.75;94.80
19526;BME280;9907;42.676;26.348;2023-04-19T08:34:37;98415.72;;;12.74;93.31
19526;BME280;9907;42.676;26.348;2023-04-19T08:37:02;98416.53;;;12.66;90.84
19526;BME280;9907;42.676;26.348;2023-04-19T08:39:30;98406.31;;;12.69;99.17
19526;BME280;9907;42.676;26.348;2023-04-19T08:41:55;98408.34;;;12.84;97.40
19526;BME280;9907;42.676;26.348;2023-04-19T08:44:22;98411.69;;;12.69;89.43
19526;BME280;9907;42.676;26.348;2023-04-19T08:46:49;98408.66;;;12.73;91.00
19526;BME280;9907;42.676;26.348;2023-04-19T08:49:15;98413.66;;;12.67;89.63
19526;BME280;9907;42.676;26.348;2023-04-19T08:51:47;98415.38;;;12.77;92.82
19526;BME280;9907;42.676;26.348;2023-04-19T08:54:14;98411.69;;;12.78;92.75
19526;BME280;9907;42.676;26.348;2023-04-19T08:56:40;98410.34;;;12.74;90.57
19526;BME280;9907;42.676;26.348;2023-04-19T08:59:05;98410.84;;;12.69;90.30
19526;BME280;9907;42.676;26.348;2023-04-19T09:01:31;98410.69;;;12.71;90.64
19526;BME280;9907;42.676;26.348;2023-04-19T09:03:57;98414.34;;;12.61;89.11
19526;BME280;9907;42.676;26.348;2023-04-19T09:06:22;98424.72;;;12.64;88.56
19526;BME280;9907;42.676;26.348;2023-04-19T09:08:48;98415.03;;;12.63;88.86
19526;BME280;9907;42.676;26.348;2023-04-19T09:11:15;98419.53;;;12.63;91.98
19526;BME280;9907;42.676;26.348;2023-04-19T09:13:40;98423.72;;;12.65;98.52
19526;BME280;9907;42.676;26.348;2023-04-19T09:16:22;98422.03;;;12.64;93.83
19526;BME280;9907;42.676;26.348;2023-04-19T09:18:56;98426.25;;;12.67;93.84
19526;BME280;9907;42.676;26.348;2023-04-19T09:21:29;98427.91;;;12.68;91.41
19526;BME280;9907;42.676;26.348;2023-04-19T09:23:55;98431.78;;;12.74;91.93
19526;BME280;9907;42.676;26.348;2023-04-19T09:26:21;98419.72;;;12.78;92.67
19526;BME280;9907;42.676;26.348;2023-04-19T09:29:04;98422.88;;;12.65;89.66
19526;BME280;9907;42.676;26.348;2023-04-19T09:31:35;98419.56;;;12.71;90.77
19526;BME280;9907;42.676;26.348;2023-04-19T09:34:28;98415.03;;;12.80;95.86
19526;BME280;9907;42.676;26.348;2023-04-19T09:36:54;98414.38;;;12.86;97.02
19526;BME280;9907;42.676;26.348;2023-04-19T09:39:33;98412.38;;;12.88;100.00
19526;BME280;9907;42.676;26.348;2023-04-19T09:42:00;98422.25;;;12.87;100.00
19526;BME280;9907;42.676;26.348;2023-04-19T09:44:26;98424.09;;;12.95;100.00
19526;BME280;9907;42.676;26.348;2023-04-19T09:46:52;98418.72;;;12.95;93.33
19526;BME280;9907;42.676;26.348;2023-04-19T09:49:23;98418.72;;;12.95;98.03
19526;BME280;9907;42.676;26.348;2023-04-19T09:51:53;98421.75;;;13.00;100.00
19526;BME280;9907;42.676;26.348;2023-04-19T09:54:20;98424.75;;;13.05;100.00
19526;BME280;9907;42.676;26.348;2023-04-19T09:56:47;98426.09;;;13.09;100.00
19526;BME280;9907;42.676;26.348;2023-04-19T09:59:13;98423.09;;;13.12;100.00
19526;BME280;9907;42.676;26.348;2023-04-19T10:01:43;98424.78;;;13.13;100.00
19526;BME280;9907;42.676;26.348;2023-04-19T10:04:14;98424.09;;;13.03;99.21
19526;BME280;9907;42.676;26.348;2023-04-19T10:06:52;98422.75;;;13.07;96.57
19526;BME280;9907;42.676;26.348;2023-04-19T10:09:19;98425.13;;;13.18;97.49
19526;BME280;9907;42.676;26.348;2023-04-19T10:11:50;98418.75;;;13.27;99.08
19526;BME280;9907;42.676;26.348;2023-04-19T10:14:21;98422.75;;;13.31;97.26
19526;BME280;9907;42.676;26.348;2023-04-19T10:16:47;98417.75;;;13.36;94.05
19526;BME280;9907;42.676;26.348;2023-04-19T10:19:15;98419.41;;;13.37;95.65
19526;BME280;9907;42.676;26.348;2023-04-19T10:21:41;98419.91;;;13.41;88.65
19526;BME280;9907;42.676;26.348;2023-04-19T10:24:08;98433.13;;;13.42;87.37
19526;BME280;9907;42.676;26.348;2023-04-19T10:27:12;98423.75;;;13.46;88.28
19526;BME280;9907;42.676;26.348;2023-04-19T10:32:19;98417.03;;;13.42;87.98
19526;BME280;9907;42.676;26.348;2023-04-19T10:34:45;98423.09;;;13.44;90.34
19526;BME280;9907;42.676;26.348;2023-04-19T10:37:12;98423.44;;;13.41;82.70
19526;BME280;9907;42.676;26.348;2023-04-19T10:39:42;98423.44;;;13.33;80.86
19526;BME280;9907;42.676;26.348;2023-04-19T10:42:08;98415.06;;;13.28;79.42
19526;BME280;9907;42.676;26.348;2023-04-19T10:44:34;98415.41;;;13.33;81.25
19526;BME280;9907;42.676;26.348;2023-04-19T10:46:59;98420.91;;;13.32;82.29
19526;BME280;9907;42.676;26.348;2023-04-19T10:49:26;98423.59;;;13.32;82.57
19526;BME280;9907;42.676;26.348;2023-04-19T10:51:52;98420.75;;;13.33;86.60
19526;BME280;9907;42.676;26.348;2023-04-19T10:54:29;98417.75;;;13.36;84.13
19526;BME280;9907;42.676;26.348;2023-04-19T10:57:00;98436.38;;;13.30;86.98
19526;BME280;9907;42.676;26.348;2023-04-19T10:59:31;98434.19;;;13.33;89.27
19526;BME280;9907;42.676;26.348;2023-04-19T11:02:02;98431.16;;;13.36;88.39
19526;BME280;9907;42.676;26.348;2023-04-19T11:06:59;98437.34;;;13.37;81.47
19526;BME280;9907;42.676;26.348;2023-04-19T11:12:09;98432.50;;;13.40;80.52
19526;BME280;9907;42.676;26.348;2023-04-19T11:14:47;98433.13;;;13.42;82.16
19526;BME280;9907;42.676;26.348;2023-04-19T11:17:20;98429.63;;;13.42;84.80
19526;BME280;9907;42.676;26.348;2023-04-19T11:20:04;98435.31;;;13.39;78.52
19526;BME280;9907;42.676;26.348;2023-04-19T11:22:32;98428.13;;;13.39;77.80
19526;BME280;9907;42.676;26.348;2023-04-19T11:25:05;98430.97;;;13.38;79.13
19526;BME280;9907;42.676;26.348;2023-04-19T11:27:32;98433.66;;;13.38;77.82
19526;BME280;9907;42.676;26.348;2023-04-19T11:30:06;98435.69;;;13.36;78.14
19526;BME280;9907;42.676;26.348;2023-04-19T11:32:32;98433.00;;;13.36;79.53
19526;BME280;9907;42.676;26.348;2023-04-19T11:35:06;98432.66;;;13.39;82.42
19526;BME280;9907;42.676;26.348;2023-04-19T11:37:33;98434.00;;;13.35;84.18
19526;BME280;9907;42.676;26.348;2023-04-19T11:39:59;98449.09;;;13.36;87.40
19526;BME280;9907;42.676;26.348;2023-04-19T11:42:24;98442.88;;;13.35;82.53
19526;BME280;9907;42.676;26.348;2023-04-19T11:44:51;98445.56;;;13.35;83.65
19526;BME280;9907;42.676;26.348;2023-04-19T11:47:17;98441.69;;;13.38;84.57
19526;BME280;9907;42.676;26.348;2023-04-19T11:49:44;98449.59;;;13.31;85.49
19526;BME280;9907;42.676;26.348;2023-04-19T11:52:09;98440.19;;;13.35;87.15
19526;BME280;9907;42.676;26.348;2023-04-19T11:54:34;98443.06;;;13.34;87.67
19526;BME280;9907;42.676;26.348;2023-04-19T11:57:05;98444.91;;;13.33;87.26
19526;BME280;9907;42.676;26.348;2023-04-19T11:59:32;98436.16;;;13.39;89.91
19526;BME280;9907;42.676;26.348;2023-04-19T12:02:09;98430.44;;;13.50;87.65
19526;BME280;9907;42.676;26.348;2023-04-19T12:04:35;98432.13;;;13.51;89.14
19526;BME280;9907;42.676;26.348;2023-04-19T12:07:02;98433.63;;;13.54;86.53
19526;BME280;9907;42.676;26.348;2023-04-19T12:09:28;98425.78;;;13.52;85.60
19526;BME280;9907;42.676;26.348;2023-04-19T12:11:54;98425.59;;;13.54;86.78
19526;BME280;9907;42.676;26.348;2023-04-19T12:14:21;98426.06;;;13.57;88.12
19526;BME280;9907;42.676;26.348;2023-04-19T12:19:34;98424.59;;;13.55;89.94
19526;BME280;9907;42.676;26.348;2023-04-19T12:22:14;98426.44;;;13.46;81.61
19526;BME280;9907;42.676;26.348;2023-04-19T12:24:40;98408.66;;;13.45;81.40
19526;BME280;9907;42.676;26.348;2023-04-19T12:27:09;98409.84;;;13.51;80.98
19526;BME280;9907;42.676;26.348;2023-04-19T12:29:35;98405.59;;;13.64;83.13
19526;BME280;9907;42.676;26.348;2023-04-19T12:32:01;98415.97;;;13.68;81.29
19526;BME280;9907;42.676;26.348;2023-04-19T12:34:27;98403.22;;;13.78;83.78
19526;BME280;9907;42.676;26.348;2023-04-19T12:36:53;98406.22;;;13.75;81.58
19526;BME280;9907;42.676;26.348;2023-04-19T12:39:18;98408.25;;;13.73;80.49
19526;BME280;9907;42.676;26.348;2023-04-19T12:41:44;98401.22;;;13.72;79.15
19526;BME280;9907;42.676;26.348;2023-04-19T12:44:12;98406.41;;;13.73;78.06
19526;BME280;9907;42.676;26.348;2023-04-19T12:46:37;98399.06;;;13.67;75.71
19526;BME280;9907;42.676;26.348;2023-04-19T12:49:03;98405.59;;;13.64;76.55
19526;BME280;9907;42.676;26.348;2023-04-19T12:51:29;98399.56;;;13.71;81.61
19526;BME280;9907;42.676;26.348;2023-04-19T12:53:54;98395.84;;;13.72;77.61
19526;BME280;9907;42.676;26.348;2023-04-19T12:56:20;98400.88;;;13.75;76.49
19526;BME280;9907;42.676;26.348;2023-04-19T12:58:45;98395.16;;;13.78;78.90
19526;BME280;9907;42.676;26.348;2023-04-19T13:01:11;98392.31;;;13.79;77.28